sensor_id;sensor_type;location;lat;lon;timestamp;P1;durP1;ratioP1;P2;durP2;ratioP2
10246;SDS011;5168;47.854;7.944;2022-10-22T00:00:14;1.70;;;1.60;;
10246;SDS011;5168;47.854;7.944;2022-10-22T00:02:41;2.20;;;2.10;;
10246;SDS011;5168;47.854;7.944;2022-10-22T00:05:06;2.20;;;2.10;;
10246;SDS011;5168;47.854;7.944;2022-10-22T00:07:33;2.30;;;2.10;;
10246;SDS011;5168;47.854;7.944;2022-10-22T00:09:59;2.10;;;2.00;;
10246;SDS011;5168;47.854;7.944;2022-10-22T00:12:25;1.73;;;1.63;;
10246;SDS011;5168;47.854;7.944;2022-10-22T00:14:51;1.40;;;1.30;;
10246;SDS011;5168;47.854;7.944;2022-10-22T00:17:17;1.90;;;1.50;;
10246;SDS011;5168;47.854;7.944;2022-10-22T00:19:43;1.30;;;1.20;;
10246;SDS011;5168;47.854;7.944;2022-10-22T00:22:09;3.10;;;1.30;;
10246;SDS011;5168;47.854;7.944;2022-10-22T00:24:35;1.30;;;1.20;;
10246;SDS011;5168;47.854;7.944;2022-10-22T00:27:02;1.43;;;1.33;;
10246;SDS011;5168;47.854;7.944;2022-10-22T00:29:28;1.40;;;1.30;;
10246;SDS011;5168;47.854;7.944;2022-10-22T00:31:54;1.40;;;1.30;;
10246;SDS011;5168;47.854;7.944;2022-10-22T00:34:20;2.60;;;2.10;;
10246;SDS011;5168;47.854;7.944;2022-10-22T00:36:46;2.30;;;2.10;;
10246;SDS011;5168;47.854;7.944;2022-10-22T00:39:13;2.20;;;2.00;;
10246;SDS011;5168;47.854;7.944;2022-10-22T00:41:41;1.70;;;1.60;;
10246;SDS011;5168;47.854;7.944;2022-10-22T00:44:57;3.90;;;1.73;;
10246;SDS011;5168;47.854;7.944;2022-10-22T00:47:11;1.60;;;1.50;;
10246;SDS011;5168;47.854;7.944;2022-10-22T00:49:38;1.30;;;1.20;;
10246;SDS011;5168;47.854;7.944;2022-10-22T00:52:04;1.80;;;1.40;;
10246;SDS011;5168;47.854;7.944;2022-10-22T00:54:30;2.43;;;1.30;;
10246;SDS011;5168;47.854;7.944;2022-10-22T00:56:57;1.50;;;1.40;;
10246;SDS011;5168;47.854;7.944;2022-10-22T00:59:22;1.70;;;1.60;;
10246;SDS011;5168;47.854;7.944;2022-10-22T01:01:48;1.53;;;1.43;;
10246;SDS011;5168;47.854;7.944;2022-10-22T01:04:14;1.53;;;1.43;;
10246;SDS011;5168;47.854;7.944;2022-10-22T01:06:40;1.53;;;1.43;;
10246;SDS011;5168;47.854;7.944;2022-10-22T01:09:10;2.33;;;1.60;;
10246;SDS011;5168;47.854;7.944;2022-10-22T01:14:44;2.70;;;1.30;;
10246;SDS011;5168;47.854;7.944;2022-10-22T01:17:33;2.20;;;1.60;;
10246;SDS011;5168;47.854;7.944;2022-10-22T01:25:34;1.50;;;1.33;;
10246;SDS011;5168;47.854;7.944;2022-10-22T01:30:37;1.50;;;1.40;;
10246;SDS011;5168;47.854;7.944;2022-10-22T01:33:05;1.70;;;1.60;;
10246;SDS011;5168;47.854;7.944;2022-10-22T01:35:34;1.70;;;1.60;;
10246;SDS011;5168;47.854;7.944;2022-10-22T01:38:03;1.60;;;1.50;;
10246;SDS011;5168;47.854;7.944;2022-10-22T01:40:32;1.70;;;1.60;;
10246;SDS011;5168;47.854;7.944;2022-10-22T01:43:00;1.60;;;1.50;;
10246;SDS011;5168;47.854;7.944;2022-10-22T01:45:28;1.53;;;1.43;;
10246;SDS011;5168;47.854;7.944;2022-10-22T01:56:29;2.83;;;1.50;;
10246;SDS011;5168;47.854;7.944;2022-10-22T02:02:07;1.40;;;1.30;;
10246;SDS011;5168;47.854;7.944;2022-10-22T02:04:48;1.40;;;1.30;;
10246;SDS011;5168;47.854;7.944;2022-10-22T02:07:18;1.50;;;1.40;;
10246;SDS011;5168;47.854;7.944;2022-10-22T02:09:47;1.70;;;1.60;;
10246;SDS011;5168;47.854;7.944;2022-10-22T02:12:15;1.30;;;1.20;;
10246;SDS011;5168;47.854;7.944;2022-10-22T02:14:42;1.30;;;1.20;;
10246;SDS011;5168;47.854;7.944;2022-10-22T02:17:10;1.43;;;1.33;;
10246;SDS011;5168;47.854;7.944;2022-10-22T02:19:45;1.33;;;1.23;;
10246;SDS011;5168;47.854;7.944;2022-10-22T02:22:23;1.50;;;1.40;;
10246;SDS011;5168;47.854;7.944;2022-10-22T02:24:50;1.33;;;1.23;;
10246;SDS011;5168;47.854;7.944;2022-10-22T02:27:32;2.00;;;1.40;;
10246;SDS011;5168;47.854;7.944;2022-10-22T02:30:09;1.63;;;1.53;;
10246;SDS011;5168;47.854;7.944;2022-10-22T02:32:42;1.50;;;1.40;;
10246;SDS011;5168;47.854;7.944;2022-10-22T02:35:16;1.70;;;1.60;;
10246;SDS011;5168;47.854;7.944;2022-10-22T02:37:44;1.60;;;1.50;;
10246;SDS011;5168;47.854;7.944;2022-10-22T02:40:10;1.87;;;1.77;;
10246;SDS011;5168;47.854;7.944;2022-10-22T02:42:37;1.87;;;1.70;;
10246;SDS011;5168;47.854;7.944;2022-10-22T02:45:04;1.43;;;1.33;;
10246;SDS011;5168;47.854;7.944;2022-10-22T02:47:30;1.60;;;1.50;;
10246;SDS011;5168;47.854;7.944;2022-10-22T02:49:56;2.20;;;1.50;;
10246;SDS011;5168;47.854;7.944;2022-10-22T02:52:22;1.50;;;1.40;;
10246;SDS011;5168;47.854;7.944;2022-10-22T02:54:48;1.30;;;1.20;;
10246;SDS011;5168;47.854;7.944;2022-10-22T02:57:14;1.50;;;1.40;;
10246;SDS011;5168;47.854;7.944;2022-10-22T02:59:40;1.37;;;1.27;;
10246;SDS011;5168;47.854;7.944;2022-10-22T03:02:05;1.50;;;1.40;;
10246;SDS011;5168;47.854;7.944;2022-10-22T03:04:31;1.47;;;1.30;;
10246;SDS011;5168;47.854;7.944;2022-10-22T03:06:57;1.63;;;1.23;;
10246;SDS011;5168;47.854;7.944;2022-10-22T03:09:23;1.50;;;1.40;;
10246;SDS011;5168;47.854;7.944;2022-10-22T03:11:49;1.50;;;1.40;;
10246;SDS011;5168;47.854;7.944;2022-10-22T03:14:15;4.87;;;1.70;;
10246;SDS011;5168;47.854;7.944;2022-10-22T03:16:40;1.30;;;1.20;;
10246;SDS011;5168;47.854;7.944;2022-10-22T03:19:06;1.30;;;1.20;;
10246;SDS011;5168;47.854;7.944;2022-10-22T03:24:11;1.70;;;1.60;;
10246;SDS011;5168;47.854;7.944;2022-10-22T03:26:40;2.47;;;1.60;;
10246;SDS011;5168;47.854;7.944;2022-10-22T03:29:07;1.60;;;1.50;;
10246;SDS011;5168;47.854;7.944;2022-10-22T03:31:35;1.40;;;1.30;;
10246;SDS011;5168;47.854;7.944;2022-10-22T03:34:01;1.70;;;1.60;;
10246;SDS011;5168;47.854;7.944;2022-10-22T03:36:27;1.53;;;1.43;;
10246;SDS011;5168;47.854;7.944;2022-10-22T03:38:52;2.57;;;2.37;;
10246;SDS011;5168;47.854;7.944;2022-10-22T03:41:18;2.03;;;1.80;;
10246;SDS011;5168;47.854;7.944;2022-10-22T03:43:44;1.90;;;1.70;;
10246;SDS011;5168;47.854;7.944;2022-10-22T03:46:14;1.90;;;1.73;;
10246;SDS011;5168;47.854;7.944;2022-10-22T03:48:39;1.77;;;1.67;;
10246;SDS011;5168;47.854;7.944;2022-10-22T03:51:05;2.13;;;2.00;;
10246;SDS011;5168;47.854;7.944;2022-10-22T03:53:30;2.67;;;2.23;;
10246;SDS011;5168;47.854;7.944;2022-10-22T03:55:56;1.90;;;1.80;;
10246;SDS011;5168;47.854;7.944;2022-10-22T03:58:22;3.77;;;2.00;;
10246;SDS011;5168;47.854;7.944;2022-10-22T04:00:47;1.77;;;1.67;;
10246;SDS011;5168;47.854;7.944;2022-10-22T04:03:13;1.53;;;1.43;;
10246;SDS011;5168;47.854;7.944;2022-10-22T04:05:39;1.90;;;1.80;;
10246;SDS011;5168;47.854;7.944;2022-10-22T04:08:05;1.83;;;1.70;;
10246;SDS011;5168;47.854;7.944;2022-10-22T04:10:31;1.63;;;1.53;;
10246;SDS011;5168;47.854;7.944;2022-10-22T04:12:56;2.67;;;1.80;;
10246;SDS011;5168;47.854;7.944;2022-10-22T04:15:22;1.60;;;1.50;;
10246;SDS011;5168;47.854;7.944;2022-10-22T04:17:52;1.70;;;1.60;;
10246;SDS011;5168;47.854;7.944;2022-10-22T04:20:17;3.47;;;1.73;;
10246;SDS011;5168;47.854;7.944;2022-10-22T04:22:43;3.33;;;1.87;;
10246;SDS011;5168;47.854;7.944;2022-10-22T04:25:09;1.97;;;1.80;;
10246;SDS011;5168;47.854;7.944;2022-10-22T04:27:35;1.63;;;1.53;;
10246;SDS011;5168;47.854;7.944;2022-10-22T04:30:01;4.30;;;1.70;;
10246;SDS011;5168;47.854;7.944;2022-10-22T04:32:27;1.80;;;1.70;;
10246;SDS011;5168;47.854;7.944;2022-10-22T04:34:53;1.63;;;1.50;;
10246;SDS011;5168;47.854;7.944;2022-10-22T04:37:19;2.87;;;1.77;;
10246;SDS011;5168;47.854;7.944;2022-10-22T04:39:44;2.00;;;1.50;;
10246;SDS011;5168;47.854;7.944;2022-10-22T04:42:10;2.60;;;1.80;;
10246;SDS011;5168;47.854;7.944;2022-10-22T04:44:36;2.13;;;1.67;;
10246;SDS011;5168;47.854;7.944;2022-10-22T04:47:02;2.73;;;1.63;;
10246;SDS011;5168;47.854;7.944;2022-10-22T04:49:28;1.63;;;1.50;;
10246;SDS011;5168;47.854;7.944;2022-10-22T04:51:54;1.70;;;1.60;;
10246;SDS011;5168;47.854;7.944;2022-10-22T04:54:20;3.93;;;1.53;;
10246;SDS011;5168;47.854;7.944;2022-10-22T04:56:45;1.60;;;1.50;;
10246;SDS011;5168;47.854;7.944;2022-10-22T04:59:11;1.83;;;1.73;;
10246;SDS011;5168;47.854;7.944;2022-10-22T05:01:38;3.70;;;1.50;;
10246;SDS011;5168;47.854;7.944;2022-10-22T05:04:06;1.90;;;1.57;;
10246;SDS011;5168;47.854;7.944;2022-10-22T05:06:33;3.93;;;1.73;;
10246;SDS011;5168;47.854;7.944;2022-10-22T05:09:02;1.83;;;1.63;;
10246;SDS011;5168;47.854;7.944;2022-10-22T05:11:35;2.20;;;1.60;;
10246;SDS011;5168;47.854;7.944;2022-10-22T05:14:03;2.20;;;1.50;;
10246;SDS011;5168;47.854;7.944;2022-10-22T05:16:30;1.80;;;1.70;;
10246;SDS011;5168;47.854;7.944;2022-10-22T05:18:57;1.93;;;1.60;;
10246;SDS011;5168;47.854;7.944;2022-10-22T05:21:24;1.80;;;1.70;;
10246;SDS011;5168;47.854;7.944;2022-10-22T05:23:50;3.20;;;1.70;;
10246;SDS011;5168;47.854;7.944;2022-10-22T05:26:17;2.50;;;2.00;;
10246;SDS011;5168;47.854;7.944;2022-10-22T05:28:44;1.80;;;1.70;;
10246;SDS011;5168;47.854;7.944;2022-10-22T05:31:11;2.30;;;1.80;;
10246;SDS011;5168;47.854;7.944;2022-10-22T05:33:38;1.90;;;1.80;;
10246;SDS011;5168;47.854;7.944;2022-10-22T05:36:05;2.13;;;1.70;;
10246;SDS011;5168;47.854;7.944;2022-10-22T05:38:32;3.00;;;1.80;;
10246;SDS011;5168;47.854;7.944;2022-10-22T05:40:59;2.63;;;1.80;;
10246;SDS011;5168;47.854;7.944;2022-10-22T05:43:30;4.70;;;2.07;;
10246;SDS011;5168;47.854;7.944;2022-10-22T05:45:59;2.10;;;1.83;;
10246;SDS011;5168;47.854;7.944;2022-10-22T05:48:47;5.43;;;2.20;;
10246;SDS011;5168;47.854;7.944;2022-10-22T05:51:17;2.17;;;1.80;;
10246;SDS011;5168;47.854;7.944;2022-10-22T05:53:43;3.47;;;1.80;;
10246;SDS011;5168;47.854;7.944;2022-10-22T05:56:13;3.00;;;1.97;;
10246;SDS011;5168;47.854;7.944;2022-10-22T05:58:40;4.30;;;1.80;;
10246;SDS011;5168;47.854;7.944;2022-10-22T06:01:25;2.40;;;1.93;;
10246;SDS011;5168;47.854;7.944;2022-10-22T06:03:56;2.00;;;1.80;;
10246;SDS011;5168;47.854;7.944;2022-10-22T06:06:47;1.90;;;1.80;;
10246;SDS011;5168;47.854;7.944;2022-10-22T06:09:27;2.93;;;1.90;;
10246;SDS011;5168;47.854;7.944;2022-10-22T06:11:56;2.73;;;1.77;;
10246;SDS011;5168;47.854;7.944;2022-10-22T06:14:22;2.60;;;1.70;;
10246;SDS011;5168;47.854;7.944;2022-10-22T06:16:48;1.70;;;1.60;;
10246;SDS011;5168;47.854;7.944;2022-10-22T06:19:16;3.43;;;1.70;;
10246;SDS011;5168;47.854;7.944;2022-10-22T06:21:43;2.97;;;1.87;;
10246;SDS011;5168;47.854;7.944;2022-10-22T06:24:09;2.57;;;2.10;;
10246;SDS011;5168;47.854;7.944;2022-10-22T06:26:35;5.53;;;2.37;;
10246;SDS011;5168;47.854;7.944;2022-10-22T06:29:01;2.60;;;2.40;;
10246;SDS011;5168;47.854;7.944;2022-10-22T06:31:28;2.33;;;2.10;;
10246;SDS011;5168;47.854;7.944;2022-10-22T06:33:57;1.83;;;1.73;;
10246;SDS011;5168;47.854;7.944;2022-10-22T06:36:23;1.97;;;1.83;;
10246;SDS011;5168;47.854;7.944;2022-10-22T06:38:52;2.13;;;1.97;;
10246;SDS011;5168;47.854;7.944;2022-10-22T06:41:18;2.00;;;1.90;;
10246;SDS011;5168;47.854;7.944;2022-10-22T06:43:44;2.07;;;1.90;;
10246;SDS011;5168;47.854;7.944;2022-10-22T06:46:17;2.30;;;2.10;;
10246;SDS011;5168;47.854;7.944;2022-10-22T06:48:51;4.23;;;2.10;;
10246;SDS011;5168;47.854;7.944;2022-10-22T06:51:20;3.47;;;2.27;;
10246;SDS011;5168;47.854;7.944;2022-10-22T06:53:46;2.30;;;2.10;;
10246;SDS011;5168;47.854;7.944;2022-10-22T06:56:13;3.03;;;2.20;;
10246;SDS011;5168;47.854;7.944;2022-10-22T06:58:40;2.33;;;2.00;;
10246;SDS011;5168;47.854;7.944;2022-10-22T07:01:08;4.23;;;2.07;;
10246;SDS011;5168;47.854;7.944;2022-10-22T07:03:35;3.33;;;2.37;;
10246;SDS011;5168;47.854;7.944;2022-10-22T07:06:02;2.20;;;2.00;;
10246;SDS011;5168;47.854;7.944;2022-10-22T07:08:29;2.30;;;2.10;;
10246;SDS011;5168;47.854;7.944;2022-10-22T07:10:55;5.47;;;2.03;;
10246;SDS011;5168;47.854;7.944;2022-10-22T07:13:28;3.50;;;2.13;;
10246;SDS011;5168;47.854;7.944;2022-10-22T07:15:54;4.53;;;2.20;;
10246;SDS011;5168;47.854;7.944;2022-10-22T07:18:20;2.03;;;1.83;;
10246;SDS011;5168;47.854;7.944;2022-10-22T07:20:46;2.03;;;1.93;;
10246;SDS011;5168;47.854;7.944;2022-10-22T07:23:13;2.37;;;2.03;;
10246;SDS011;5168;47.854;7.944;2022-10-22T07:25:39;6.53;;;2.37;;
10246;SDS011;5168;47.854;7.944;2022-10-22T07:28:05;4.23;;;1.97;;
10246;SDS011;5168;47.854;7.944;2022-10-22T07:30:31;3.67;;;2.50;;
10246;SDS011;5168;47.854;7.944;2022-10-22T07:32:57;2.43;;;1.87;;
10246;SDS011;5168;47.854;7.944;2022-10-22T07:35:23;3.03;;;1.80;;
10246;SDS011;5168;47.854;7.944;2022-10-22T07:37:48;3.77;;;2.07;;
10246;SDS011;5168;47.854;7.944;2022-10-22T07:40:14;2.77;;;1.90;;
10246;SDS011;5168;47.854;7.944;2022-10-22T07:42:40;2.33;;;1.93;;
10246;SDS011;5168;47.854;7.944;2022-10-22T07:45:05;3.13;;;2.30;;
10246;SDS011;5168;47.854;7.944;2022-10-22T07:47:31;1.93;;;1.80;;
10246;SDS011;5168;47.854;7.944;2022-10-22T07:49:57;2.23;;;2.00;;
10246;SDS011;5168;47.854;7.944;2022-10-22T07:52:22;3.90;;;1.80;;
10246;SDS011;5168;47.854;7.944;2022-10-22T07:54:48;4.03;;;1.90;;
10246;SDS011;5168;47.854;7.944;2022-10-22T07:57:16;6.77;;;1.93;;
10246;SDS011;5168;47.854;7.944;2022-10-22T07:59:42;1.63;;;1.53;;
10246;SDS011;5168;47.854;7.944;2022-10-22T08:02:08;2.33;;;1.90;;
10246;SDS011;5168;47.854;7.944;2022-10-22T08:04:35;2.17;;;1.93;;
10246;SDS011;5168;47.854;7.944;2022-10-22T08:07:01;2.33;;;1.83;;
10246;SDS011;5168;47.854;7.944;2022-10-22T08:09:27;2.10;;;1.70;;
10246;SDS011;5168;47.854;7.944;2022-10-22T08:11:52;2.27;;;1.60;;
10246;SDS011;5168;47.854;7.944;2022-10-22T08:14:18;2.63;;;1.83;;
10246;SDS011;5168;47.854;7.944;2022-10-22T08:16:44;5.13;;;1.97;;
10246;SDS011;5168;47.854;7.944;2022-10-22T08:19:10;2.23;;;1.67;;
10246;SDS011;5168;47.854;7.944;2022-10-22T08:21:37;1.80;;;1.70;;
10246;SDS011;5168;47.854;7.944;2022-10-22T08:24:04;6.60;;;1.70;;
10246;SDS011;5168;47.854;7.944;2022-10-22T08:26:30;2.20;;;1.60;;
10246;SDS011;5168;47.854;7.944;2022-10-22T08:28:56;3.70;;;1.80;;
10246;SDS011;5168;47.854;7.944;2022-10-22T08:31:22;6.83;;;2.00;;
10246;SDS011;5168;47.854;7.944;2022-10-22T08:33:48;2.73;;;1.90;;
10246;SDS011;5168;47.854;7.944;2022-10-22T08:36:14;2.57;;;2.10;;
10246;SDS011;5168;47.854;7.944;2022-10-22T08:38:40;2.67;;;1.77;;
10246;SDS011;5168;47.854;7.944;2022-10-22T08:41:11;2.67;;;1.63;;
10246;SDS011;5168;47.854;7.944;2022-10-22T08:49:08;1.77;;;1.57;;
10246;SDS011;5168;47.854;7.944;2022-10-22T08:51:41;1.90;;;1.70;;
10246;SDS011;5168;47.854;7.944;2022-10-22T08:54:16;2.80;;;1.57;;
10246;SDS011;5168;47.854;7.944;2022-10-22T09:07:54;2.73;;;1.60;;
10246;SDS011;5168;47.854;7.944;2022-10-22T09:10:20;7.83;;;1.60;;
10246;SDS011;5168;47.854;7.944;2022-10-22T09:12:50;2.90;;;1.60;;
10246;SDS011;5168;47.854;7.944;2022-10-22T09:15:17;2.83;;;1.60;;
10246;SDS011;5168;47.854;7.944;2022-10-22T09:18:18;2.57;;;1.80;;
10246;SDS011;5168;47.854;7.944;2022-10-22T09:20:41;1.80;;;1.70;;
10246;SDS011;5168;47.854;7.944;2022-10-22T09:23:22;3.20;;;2.07;;
10246;SDS011;5168;47.854;7.944;2022-10-22T09:25:56;2.80;;;2.07;;
10246;SDS011;5168;47.854;7.944;2022-10-22T09:28:23;3.40;;;1.80;;
10246;SDS011;5168;47.854;7.944;2022-10-22T09:30:49;3.87;;;1.97;;
10246;SDS011;5168;47.854;7.944;2022-10-22T09:33:16;2.20;;;1.60;;
10246;SDS011;5168;47.854;7.944;2022-10-22T09:35:54;2.30;;;1.93;;
10246;SDS011;5168;47.854;7.944;2022-10-22T09:38:24;3.17;;;2.23;;
10246;SDS011;5168;47.854;7.944;2022-10-22T09:40:52;2.73;;;1.80;;
10246;SDS011;5168;47.854;7.944;2022-10-22T09:43:19;6.27;;;2.30;;
10246;SDS011;5168;47.854;7.944;2022-10-22T09:45:46;1.83;;;1.60;;
10246;SDS011;5168;47.854;7.944;2022-10-22T09:48:17;3.90;;;1.80;;
10246;SDS011;5168;47.854;7.944;2022-10-22T09:51:05;2.17;;;1.70;;
10246;SDS011;5168;47.854;7.944;2022-10-22T09:53:58;2.90;;;1.67;;
10246;SDS011;5168;47.854;7.944;2022-10-22T09:56:35;2.83;;;1.83;;
10246;SDS011;5168;47.854;7.944;2022-10-22T09:59:05;5.93;;;1.70;;
10246;SDS011;5168;47.854;7.944;2022-10-22T10:01:39;2.73;;;1.60;;
10246;SDS011;5168;47.854;7.944;2022-10-22T10:04:06;2.30;;;1.50;;
10246;SDS011;5168;47.854;7.944;2022-10-22T10:06:35;4.40;;;1.70;;
10246;SDS011;5168;47.854;7.944;2022-10-22T10:09:26;1.70;;;1.40;;
10246;SDS011;5168;47.854;7.944;2022-10-22T10:20:10;1.80;;;1.63;;
10246;SDS011;5168;47.854;7.944;2022-10-22T10:25:50;3.00;;;1.60;;
10246;SDS011;5168;47.854;7.944;2022-10-22T10:28:19;3.37;;;1.53;;
10246;SDS011;5168;47.854;7.944;2022-10-22T10:33:30;2.70;;;1.53;;
10246;SDS011;5168;47.854;7.944;2022-10-22T10:36:13;1.63;;;1.50;;
10246;SDS011;5168;47.854;7.944;2022-10-22T10:38:56;2.33;;;1.67;;
10246;SDS011;5168;47.854;7.944;2022-10-22T10:47:15;2.00;;;1.53;;
10246;SDS011;5168;47.854;7.944;2022-10-22T10:53:17;3.80;;;2.30;;
10246;SDS011;5168;47.854;7.944;2022-10-22T10:58:33;4.13;;;1.60;;
10246;SDS011;5168;47.854;7.944;2022-10-22T11:04:06;5.20;;;1.83;;
10246;SDS011;5168;47.854;7.944;2022-10-22T11:06:38;2.27;;;1.57;;
10246;SDS011;5168;47.854;7.944;2022-10-22T11:09:29;4.67;;;2.03;;
10246;SDS011;5168;47.854;7.944;2022-10-22T11:12:44;2.27;;;1.70;;
10246;SDS011;5168;47.854;7.944;2022-10-22T11:15:08;6.10;;;1.33;;
10246;SDS011;5168;47.854;7.944;2022-10-22T11:17:46;2.37;;;1.50;;
10246;SDS011;5168;47.854;7.944;2022-10-22T11:20:21;3.37;;;1.70;;
10246;SDS011;5168;47.854;7.944;2022-10-22T11:23:03;1.40;;;1.30;;
10246;SDS011;5168;47.854;7.944;2022-10-22T11:25:33;4.10;;;1.53;;
10246;SDS011;5168;47.854;7.944;2022-10-22T11:28:16;2.03;;;1.13;;
10246;SDS011;5168;47.854;7.944;2022-10-22T11:31:14;3.53;;;1.40;;
10246;SDS011;5168;47.854;7.944;2022-10-22T11:36:17;2.03;;;1.30;;
10246;SDS011;5168;47.854;7.944;2022-10-22T11:38:47;3.73;;;1.33;;
10246;SDS011;5168;47.854;7.944;2022-10-22T11:41:15;2.47;;;1.30;;
10246;SDS011;5168;47.854;7.944;2022-10-22T11:43:56;3.40;;;1.40;;
10246;SDS011;5168;47.854;7.944;2022-10-22T11:51:39;3.47;;;1.67;;
10246;SDS011;5168;47.854;7.944;2022-10-22T11:57:37;4.67;;;1.73;;
10246;SDS011;5168;47.854;7.944;2022-10-22T12:02:41;1.70;;;1.43;;
10246;SDS011;5168;47.854;7.944;2022-10-22T12:07:52;6.33;;;1.77;;
10246;SDS011;5168;47.854;7.944;2022-10-22T12:10:21;1.90;;;1.50;;
10246;SDS011;5168;47.854;7.944;2022-10-22T12:13:04;1.37;;;1.27;;
10246;SDS011;5168;47.854;7.944;2022-10-22T12:15:45;3.50;;;2.03;;
10246;SDS011;5168;47.854;7.944;2022-10-22T12:18:12;4.43;;;1.77;;
10246;SDS011;5168;47.854;7.944;2022-10-22T12:20:39;2.67;;;1.87;;
10246;SDS011;5168;47.854;7.944;2022-10-22T12:23:05;2.10;;;1.77;;
10246;SDS011;5168;47.854;7.944;2022-10-22T12:25:35;3.03;;;1.80;;
10246;SDS011;5168;47.854;7.944;2022-10-22T12:28:02;2.97;;;1.73;;
10246;SDS011;5168;47.854;7.944;2022-10-22T12:30:29;4.37;;;1.93;;
10246;SDS011;5168;47.854;7.944;2022-10-22T12:32:58;2.53;;;1.50;;
10246;SDS011;5168;47.854;7.944;2022-10-22T12:35:27;2.47;;;1.47;;
10246;SDS011;5168;47.854;7.944;2022-10-22T12:37:55;3.53;;;1.40;;
10246;SDS011;5168;47.854;7.944;2022-10-22T12:40:26;3.37;;;1.80;;
10246;SDS011;5168;47.854;7.944;2022-10-22T12:43:00;3.27;;;1.57;;
10246;SDS011;5168;47.854;7.944;2022-10-22T12:45:37;3.43;;;1.50;;
10246;SDS011;5168;47.854;7.944;2022-10-22T12:48:13;2.90;;;1.30;;
10246;SDS011;5168;47.854;7.944;2022-10-22T12:50:42;1.73;;;1.33;;
10246;SDS011;5168;47.854;7.944;2022-10-22T12:55:58;1.30;;;1.00;;
10246;SDS011;5168;47.854;7.944;2022-10-22T12:58:26;2.13;;;1.23;;
10246;SDS011;5168;47.854;7.944;2022-10-22T13:00:56;1.30;;;1.20;;
10246;SDS011;5168;47.854;7.944;2022-10-22T13:03:30;2.63;;;1.50;;
10246;SDS011;5168;47.854;7.944;2022-10-22T13:08:54;1.67;;;1.00;;
10246;SDS011;5168;47.854;7.944;2022-10-22T13:11:21;1.45;;;1.10;;
10246;SDS011;5168;47.854;7.944;2022-10-22T13:13:46;2.90;;;1.30;;
10246;SDS011;5168;47.854;7.944;2022-10-22T13:16:13;1.58;;;1.10;;
10246;SDS011;5168;47.854;7.944;2022-10-22T13:18:48;2.53;;;1.17;;
10246;SDS011;5168;47.854;7.944;2022-10-22T13:21:22;3.42;;;1.13;;
10246;SDS011;5168;47.854;7.944;2022-10-22T13:23:51;2.03;;;1.05;;
10246;SDS011;5168;47.854;7.944;2022-10-22T13:26:21;2.05;;;1.02;;
10246;SDS011;5168;47.854;7.944;2022-10-22T13:28:50;1.67;;;1.00;;
10246;SDS011;5168;47.854;7.944;2022-10-22T13:31:18;1.58;;;1.00;;
10246;SDS011;5168;47.854;7.944;2022-10-22T13:33:50;1.38;;;0.88;;
10246;SDS011;5168;47.854;7.944;2022-10-22T13:36:19;2.35;;;0.90;;
10246;SDS011;5168;47.854;7.944;2022-10-22T13:38:44;1.25;;;1.00;;
10246;SDS011;5168;47.854;7.944;2022-10-22T13:41:20;1.67;;;1.23;;
10246;SDS011;5168;47.854;7.944;2022-10-22T13:43:55;2.55;;;1.30;;
10246;SDS011;5168;47.854;7.944;2022-10-22T13:46:21;1.65;;;1.20;;
10246;SDS011;5168;47.854;7.944;2022-10-22T13:48:50;2.65;;;1.38;;
10246;SDS011;5168;47.854;7.944;2022-10-22T13:51:21;1.70;;;1.17;;
10246;SDS011;5168;47.854;7.944;2022-10-22T13:53:49;5.07;;;1.08;;
10246;SDS011;5168;47.854;7.944;2022-10-22T13:56:17;2.95;;;1.35;;
10246;SDS011;5168;47.854;7.944;2022-10-22T13:58:45;1.60;;;1.13;;
10246;SDS011;5168;47.854;7.944;2022-10-22T14:01:25;2.30;;;1.20;;
10246;SDS011;5168;47.854;7.944;2022-10-22T14:03:52;3.53;;;1.33;;
10246;SDS011;5168;47.854;7.944;2022-10-22T14:06:20;2.80;;;1.10;;
10246;SDS011;5168;47.854;7.944;2022-10-22T14:08:47;3.47;;;1.20;;
10246;SDS011;5168;47.854;7.944;2022-10-22T14:11:14;1.70;;;1.20;;
10246;SDS011;5168;47.854;7.944;2022-10-22T14:13:40;1.43;;;1.20;;
10246;SDS011;5168;47.854;7.944;2022-10-22T14:16:06;2.40;;;1.30;;
10246;SDS011;5168;47.854;7.944;2022-10-22T14:18:46;1.30;;;1.07;;
10246;SDS011;5168;47.854;7.944;2022-10-22T14:21:12;2.63;;;1.10;;
10246;SDS011;5168;47.854;7.944;2022-10-22T14:23:39;1.60;;;1.20;;
10246;SDS011;5168;47.854;7.944;2022-10-22T14:26:06;3.27;;;1.60;;
10246;SDS011;5168;47.854;7.944;2022-10-22T14:28:33;1.97;;;1.20;;
10246;SDS011;5168;47.854;7.944;2022-10-22T14:30:59;3.57;;;1.20;;
10246;SDS011;5168;47.854;7.944;2022-10-22T14:33:29;1.53;;;1.30;;
10246;SDS011;5168;47.854;7.944;2022-10-22T14:35:56;2.07;;;1.40;;
10246;SDS011;5168;47.854;7.944;2022-10-22T14:38:23;1.50;;;1.30;;
10246;SDS011;5168;47.854;7.944;2022-10-22T14:40:49;2.17;;;1.27;;
10246;SDS011;5168;47.854;7.944;2022-10-22T14:45:41;4.20;;;1.43;;
10246;SDS011;5168;47.854;7.944;2022-10-22T14:48:07;1.70;;;1.60;;
10246;SDS011;5168;47.854;7.944;2022-10-22T14:50:33;1.53;;;1.30;;
10246;SDS011;5168;47.854;7.944;2022-10-22T14:52:59;3.63;;;1.30;;
10246;SDS011;5168;47.854;7.944;2022-10-22T14:55:25;1.27;;;1.17;;
10246;SDS011;5168;47.854;7.944;2022-10-22T14:57:51;1.40;;;1.30;;
10246;SDS011;5168;47.854;7.944;2022-10-22T15:00:17;1.30;;;1.20;;
10246;SDS011;5168;47.854;7.944;2022-10-22T15:02:43;3.10;;;1.47;;
10246;SDS011;5168;47.854;7.944;2022-10-22T15:05:09;1.47;;;1.30;;
10246;SDS011;5168;47.854;7.944;2022-10-22T15:07:36;3.63;;;1.17;;
10246;SDS011;5168;47.854;7.944;2022-10-22T15:10:02;1.80;;;1.30;;
10246;SDS011;5168;47.854;7.944;2022-10-22T15:12:29;1.37;;;1.17;;
10246;SDS011;5168;47.854;7.944;2022-10-22T15:14:55;2.20;;;1.20;;
10246;SDS011;5168;47.854;7.944;2022-10-22T15:17:21;1.30;;;1.20;;
10246;SDS011;5168;47.854;7.944;2022-10-22T15:19:46;1.30;;;1.20;;
10246;SDS011;5168;47.854;7.944;2022-10-22T15:22:12;1.90;;;1.30;;
10246;SDS011;5168;47.854;7.944;2022-10-22T15:24:39;1.63;;;1.20;;
10246;SDS011;5168;47.854;7.944;2022-10-22T15:27:07;1.30;;;1.20;;
10246;SDS011;5168;47.854;7.944;2022-10-22T15:29:33;5.07;;;1.73;;
10246;SDS011;5168;47.854;7.944;2022-10-22T15:32:00;1.70;;;1.30;;
10246;SDS011;5168;47.854;7.944;2022-10-22T15:34:27;3.07;;;1.30;;
10246;SDS011;5168;47.854;7.944;2022-10-22T15:36:55;1.47;;;1.37;;
10246;SDS011;5168;47.854;7.944;2022-10-22T15:39:22;1.60;;;1.50;;
10246;SDS011;5168;47.854;7.944;2022-10-22T15:41:48;3.67;;;1.50;;
10246;SDS011;5168;47.854;7.944;2022-10-22T15:44:16;1.87;;;1.60;;
10246;SDS011;5168;47.854;7.944;2022-10-22T15:46:44;1.47;;;1.33;;
10246;SDS011;5168;47.854;7.944;2022-10-22T15:49:10;1.97;;;1.70;;
10246;SDS011;5168;47.854;7.944;2022-10-22T15:51:36;5.07;;;1.50;;
10246;SDS011;5168;47.854;7.944;2022-10-22T15:54:02;1.50;;;1.40;;
10246;SDS011;5168;47.854;7.944;2022-10-22T15:56:28;2.90;;;1.50;;
10246;SDS011;5168;47.854;7.944;2022-10-22T15:58:55;1.60;;;1.50;;
10246;SDS011;5168;47.854;7.944;2022-10-22T16:01:23;4.73;;;1.30;;
10246;SDS011;5168;47.854;7.944;2022-10-22T16:03:50;3.30;;;1.30;;
10246;SDS011;5168;47.854;7.944;2022-10-22T16:06:17;3.17;;;1.40;;
10246;SDS011;5168;47.854;7.944;2022-10-22T16:08:43;2.50;;;1.50;;
10246;SDS011;5168;47.854;7.944;2022-10-22T16:11:09;1.40;;;1.30;;
10246;SDS011;5168;47.854;7.944;2022-10-22T16:13:35;1.97;;;1.47;;
10246;SDS011;5168;47.854;7.944;2022-10-22T16:16:05;1.93;;;1.30;;
10246;SDS011;5168;47.854;7.944;2022-10-22T16:18:34;1.47;;;1.30;;
10246;SDS011;5168;47.854;7.944;2022-10-22T16:21:00;1.70;;;1.30;;
10246;SDS011;5168;47.854;7.944;2022-10-22T16:23:26;1.40;;;1.30;;
10246;SDS011;5168;47.854;7.944;2022-10-22T16:25:52;2.63;;;1.53;;
10246;SDS011;5168;47.854;7.944;2022-10-22T16:28:18;1.63;;;1.37;;
10246;SDS011;5168;47.854;7.944;2022-10-22T16:30:44;3.37;;;1.70;;
10246;SDS011;5168;47.854;7.944;2022-10-22T16:33:10;2.00;;;1.30;;
10246;SDS011;5168;47.854;7.944;2022-10-22T16:35:42;2.33;;;1.40;;
10246;SDS011;5168;47.854;7.944;2022-10-22T16:38:08;1.50;;;1.40;;
10246;SDS011;5168;47.854;7.944;2022-10-22T16:40:34;1.27;;;1.17;;
10246;SDS011;5168;47.854;7.944;2022-10-22T16:43:00;1.60;;;1.50;;
10246;SDS011;5168;47.854;7.944;2022-10-22T16:45:26;1.67;;;1.40;;